Terminal Aerodrome Forecast
Issued by NWS

Home | Current Version | Previous Version | Text Only | Print | Product List | Glossary On
Versions: 1 2 3 4 5 6 7 8 9 10 11 12 13
428
FTUS45 KPSR 102156 AAA
TAFIPL
TAF AMD
KIPL 102156Z 1022/1118 27004KT P6SM SCT250
     FM110200 VRB03KT P6SM SKC=

USA.gov is the U.S. government's official web portal to all federal, state and local government web resources and services.